createdAt,value
2019-02-06T00:01:02.615Z,97.22
2019-02-06T00:03:33.393Z,97.34
2019-02-06T00:06:04.255Z,97.03
2019-02-06T00:08:34.722Z,97.00
2019-02-06T00:11:06.223Z,96.63
2019-02-06T00:13:36.974Z,96.84
2019-02-06T00:16:08.021Z,96.93
2019-02-06T00:18:38.498Z,96.79
2019-02-06T00:21:09.021Z,96.59
2019-02-06T00:23:39.570Z,96.91
2019-02-06T00:26:10.283Z,96.39
2019-02-06T00:28:41.261Z,96.40
2019-02-06T00:31:11.752Z,96.28
2019-02-06T00:33:42.526Z,96.67
2019-02-06T00:36:12.968Z,96.81
2019-02-06T00:38:43.469Z,96.83
2019-02-06T00:41:13.973Z,96.53
2019-02-06T00:43:44.452Z,96.74
2019-02-06T00:46:15.016Z,96.52
2019-02-06T00:48:45.543Z,96.41
2019-02-06T00:51:16.024Z,96.47
2019-02-06T00:53:46.855Z,96.37
2019-02-06T00:56:17.337Z,96.99
2019-02-06T00:58:47.842Z,96.27
2019-02-06T01:01:19.979Z,96.29
2019-02-06T01:03:50.616Z,96.18
2019-02-06T01:06:21.148Z,96.26
2019-02-06T01:08:51.739Z,96.27
2019-02-06T01:11:22.614Z,96.61
2019-02-06T01:13:53.112Z,96.51
2019-02-06T01:16:23.900Z,96.30
2019-02-06T01:18:54.693Z,96.29
2019-02-06T01:21:25.653Z,96.41
2019-02-06T01:23:56.284Z,96.64
2019-02-06T01:26:26.977Z,96.86
2019-02-06T01:28:57.445Z,96.82
2019-02-06T01:31:30.011Z,96.36
2019-02-06T01:34:00.471Z,95.78
2019-02-06T01:36:30.943Z,96.37
2019-02-06T01:39:01.471Z,95.48
2019-02-06T01:41:31.910Z,95.90
2019-02-06T01:44:02.765Z,95.25
2019-02-06T01:46:33.716Z,96.18
2019-02-06T01:49:04.844Z,95.61
2019-02-06T01:51:35.315Z,95.68
2019-02-06T01:54:05.955Z,95.63
2019-02-06T01:56:36.424Z,95.76
2019-02-06T01:59:07.180Z,95.65
2019-02-06T02:01:38.008Z,96.09
2019-02-06T02:04:08.742Z,96.15
2019-02-06T02:06:39.265Z,96.06
2019-02-06T02:09:19.805Z,96.37
2019-02-06T02:11:50.468Z,96.51
2019-02-06T02:14:20.912Z,97.17
2019-02-06T02:16:51.389Z,96.33
2019-02-06T02:19:23.974Z,96.73
2019-02-06T02:21:54.674Z,96.07
2019-02-06T02:24:25.472Z,96.93
2019-02-06T02:26:55.911Z,96.84
2019-02-06T02:29:26.674Z,95.89
2019-02-06T02:31:57.349Z,96.06
2019-02-06T02:34:28.065Z,96.17
2019-02-06T02:36:58.520Z,96.26
2019-02-06T02:39:29.103Z,96.34
2019-02-06T02:42:00.177Z,96.04
2019-02-06T02:44:30.804Z,96.13
2019-02-06T02:47:01.297Z,96.11
2019-02-06T02:49:32.014Z,95.96
2019-02-06T02:52:02.561Z,96.15
2019-02-06T02:54:33.346Z,95.57
2019-02-06T02:57:04.059Z,95.17
2019-02-06T02:59:34.496Z,95.19
2019-02-06T03:02:23.880Z,94.47
2019-02-06T03:05:01.694Z,94.17
2019-02-06T03:07:32.198Z,94.51
2019-02-06T03:10:02.577Z,94.18
2019-02-06T03:12:33.031Z,94.02
2019-02-06T03:15:03.616Z,93.61
2019-02-06T03:17:34.089Z,93.06
2019-02-06T03:20:06.164Z,93.24
2019-02-06T03:22:36.675Z,92.70
2019-02-06T03:25:08.501Z,92.72
2019-02-06T03:27:39.072Z,92.58
2019-02-06T03:30:13.221Z,92.62
2019-02-06T03:32:44.091Z,92.13
2019-02-06T03:35:14.879Z,91.87
2019-02-06T03:37:45.377Z,91.88
2019-02-06T03:40:16.519Z,91.57
2019-02-06T03:42:47.510Z,92.62
2019-02-06T03:45:18.354Z,91.46
2019-02-06T03:47:48.852Z,91.29
2019-02-06T03:50:19.721Z,91.14
2019-02-06T03:52:50.396Z,91.61
2019-02-06T03:55:20.955Z,91.58
2019-02-06T03:57:51.464Z,91.62
2019-02-06T04:00:22.235Z,91.22
2019-02-06T04:02:52.968Z,91.41
2019-02-06T04:05:23.466Z,90.98
2019-02-06T04:07:54.241Z,91.49
2019-02-06T04:10:24.991Z,91.30
2019-02-06T04:12:56.193Z,91.23
2019-02-06T04:15:26.956Z,90.86
2019-02-06T04:17:57.689Z,90.37
2019-02-06T04:20:28.158Z,90.20
2019-02-06T04:22:58.667Z,90.43
2019-02-06T04:25:29.135Z,90.61
2019-02-06T04:27:59.603Z,90.29
2019-02-06T04:30:30.212Z,89.61
2019-02-06T04:33:00.943Z,89.50
2019-02-06T04:35:31.425Z,89.58
2019-02-06T04:38:02.469Z,89.33
2019-02-06T04:40:33.285Z,89.80
2019-02-06T04:43:04.384Z,89.42
2019-02-06T04:45:35.209Z,89.72
2019-02-06T04:48:05.793Z,89.10
2019-02-06T04:50:36.548Z,89.07
2019-02-06T04:53:07.136Z,89.08
2019-02-06T04:55:37.589Z,89.15
2019-02-06T04:58:08.318Z,89.15
2019-02-06T05:00:38.986Z,88.26
2019-02-06T05:03:09.720Z,89.06
2019-02-06T05:05:40.183Z,87.96
2019-02-06T05:08:11.326Z,88.64
2019-02-06T05:10:41.859Z,87.95
2019-02-06T05:13:12.884Z,87.82
2019-02-06T05:15:43.393Z,87.59
2019-02-06T05:18:14.137Z,87.01
2019-02-06T05:20:44.617Z,86.90
2019-02-06T05:23:15.142Z,86.68
2019-02-06T05:25:45.659Z,86.16
2019-02-06T05:28:18.208Z,86.37
2019-02-06T05:30:48.480Z,86.20
2019-02-06T05:33:19.396Z,85.99
2019-02-06T05:35:50.286Z,86.28
2019-02-06T05:38:20.814Z,86.07
2019-02-06T05:40:51.640Z,86.20
2019-02-06T05:43:22.139Z,85.96
2019-02-06T05:45:52.812Z,85.98
2019-02-06T05:48:23.290Z,85.79
2019-02-06T05:50:54.043Z,86.12
2019-02-06T05:53:24.556Z,86.69
2019-02-06T05:55:55.314Z,86.22
2019-02-06T05:58:25.817Z,86.67
2019-02-06T06:00:56.352Z,86.60
2019-02-06T06:03:27.094Z,86.67
2019-02-06T06:05:57.563Z,87.11
2019-02-06T06:08:28.141Z,87.31
2019-02-06T06:10:58.741Z,86.66
2019-02-06T06:13:29.598Z,86.13
2019-02-06T06:16:00.094Z,86.23
2019-02-06T06:18:30.871Z,86.42
2019-02-06T06:21:01.525Z,86.19
2019-02-06T06:23:32.063Z,85.99
2019-02-06T06:26:02.582Z,86.23
2019-02-06T06:28:33.049Z,86.73
2019-02-06T06:31:03.699Z,85.95
2019-02-06T06:33:34.560Z,85.57
2019-02-06T06:36:05.017Z,85.31
2019-02-06T06:38:35.577Z,85.22
2019-02-06T06:41:06.062Z,85.37
2019-02-06T06:43:36.572Z,84.89
2019-02-06T06:46:07.146Z,85.03
2019-02-06T06:48:37.629Z,84.64
2019-02-06T06:51:08.331Z,84.56
2019-02-06T06:53:39.109Z,85.07
2019-02-06T06:56:09.594Z,84.58
2019-02-06T06:58:40.076Z,84.85
2019-02-06T07:01:11.191Z,84.87
2019-02-06T07:03:41.991Z,85.05
2019-02-06T07:06:12.486Z,84.21
2019-02-06T07:08:43.058Z,84.23
2019-02-06T07:11:13.665Z,83.68
2019-02-06T07:13:44.260Z,84.58
2019-02-06T07:16:14.942Z,84.63
2019-02-06T07:18:45.980Z,83.31
2019-02-06T07:21:16.813Z,82.74
2019-02-06T07:23:47.541Z,83.08
2019-02-06T07:26:18.899Z,84.39
2019-02-06T07:28:49.717Z,82.71
2019-02-06T07:31:20.365Z,82.01
2019-02-06T07:33:51.621Z,82.13
2019-02-06T07:36:22.682Z,81.26
2019-02-06T07:38:53.794Z,81.71
2019-02-06T07:41:24.632Z,81.64
2019-02-06T07:43:55.400Z,79.75
2019-02-06T07:46:26.073Z,79.86
2019-02-06T07:48:56.743Z,79.16
2019-02-06T07:51:27.326Z,79.01
2019-02-06T07:53:58.482Z,77.81
2019-02-06T07:56:33.583Z,77.92
2019-02-06T07:59:04.226Z,77.73
2019-02-06T08:01:34.686Z,77.92
2019-02-06T08:04:05.741Z,76.87
2019-02-06T08:06:36.589Z,77.40
2019-02-06T08:09:10.509Z,76.19
2019-02-06T08:11:41.259Z,76.92
2019-02-06T08:14:11.815Z,76.08
2019-02-06T08:16:42.304Z,76.02
2019-02-06T08:19:13.128Z,75.68
2019-02-06T08:21:43.887Z,75.60
2019-02-06T08:24:14.371Z,74.97
2019-02-06T08:26:45.115Z,74.84
2019-02-06T08:29:15.595Z,75.09
2019-02-06T08:31:46.333Z,74.77
2019-02-06T08:34:17.186Z,74.77
2019-02-06T08:36:47.656Z,74.94
2019-02-06T08:39:18.320Z,74.53
2019-02-06T08:41:49.103Z,73.72
2019-02-06T08:44:19.579Z,73.53
2019-02-06T08:46:50.367Z,73.04
2019-02-06T08:49:21.441Z,73.58
2019-02-06T08:51:52.429Z,73.28
2019-02-06T08:54:22.913Z,73.05
2019-02-06T08:56:55.339Z,73.21
2019-02-06T08:59:26.072Z,73.01
2019-02-06T09:01:56.543Z,72.91
2019-02-06T09:04:27.345Z,73.16
2019-02-06T09:06:57.829Z,72.76
2019-02-06T09:09:28.519Z,71.72
2019-02-06T09:11:59.013Z,72.69
2019-02-06T09:14:29.499Z,71.85
2019-02-06T09:17:00.442Z,72.17
2019-02-06T09:19:31.182Z,71.69
2019-02-06T09:22:01.645Z,71.74
2019-02-06T09:24:32.145Z,70.79
2019-02-06T09:27:02.606Z,70.28
2019-02-06T09:29:33.279Z,69.15
2019-02-06T09:32:03.823Z,69.48
2019-02-06T09:34:34.283Z,68.21
2019-02-06T09:37:05.361Z,68.27
2019-02-06T09:39:36.174Z,67.66
2019-02-06T09:42:06.873Z,67.35
2019-02-06T09:44:37.850Z,66.39
2019-02-06T09:47:08.399Z,67.38
2019-02-06T09:49:41.557Z,65.87
2019-02-06T09:52:11.309Z,66.17
2019-02-06T09:54:42.088Z,66.40
2019-02-06T09:57:14.073Z,65.93
2019-02-06T09:59:44.567Z,65.51
2019-02-06T10:02:15.042Z,64.48
2019-02-06T10:04:45.610Z,64.99
2019-02-06T10:07:18.962Z,65.05
2019-02-06T10:09:49.671Z,66.37
2019-02-06T10:12:20.618Z,64.22
2019-02-06T10:14:51.165Z,64.39
2019-02-06T10:17:21.623Z,64.02
2019-02-06T10:19:52.160Z,63.99
2019-02-06T10:22:22.643Z,64.26
2019-02-06T10:24:53.421Z,64.70
2019-02-06T10:27:24.234Z,64.68
2019-02-06T10:29:54.685Z,64.16
2019-02-06T10:32:25.415Z,64.57
2019-02-06T10:34:55.963Z,64.33
2019-02-06T10:37:29.150Z,64.18
2019-02-06T10:39:59.118Z,64.17
2019-02-06T10:42:29.707Z,62.97
2019-02-06T10:45:00.473Z,63.20
2019-02-06T10:47:31.263Z,63.07
2019-02-06T10:50:02.100Z,64.34
2019-02-06T10:52:33.066Z,63.11
2019-02-06T10:55:03.962Z,64.13
2019-02-06T10:57:34.558Z,63.00
2019-02-06T11:00:11.631Z,63.41
2019-02-06T11:02:42.266Z,63.30
2019-02-06T11:05:13.879Z,62.59
2019-02-06T11:07:46.281Z,63.42
2019-02-06T11:10:17.566Z,62.04
2019-02-06T11:12:48.424Z,61.52
2019-02-06T11:15:19.043Z,61.00
2019-02-06T11:17:49.998Z,60.59
2019-02-06T11:20:21.897Z,60.25
2019-02-06T11:22:52.463Z,59.55
2019-02-06T11:25:23.399Z,58.78
2019-02-06T11:27:54.333Z,59.75
2019-02-06T11:30:27.902Z,60.00
2019-02-06T11:32:59.045Z,60.47
2019-02-06T11:35:30.889Z,60.24
2019-02-06T11:38:01.543Z,59.91
2019-02-06T11:40:32.326Z,60.24
2019-02-06T11:43:03.561Z,59.69
2019-02-06T11:45:34.778Z,60.09
2019-02-06T11:48:06.316Z,59.57
2019-02-06T11:50:42.367Z,60.07
2019-02-06T11:53:17.715Z,60.46
2019-02-06T11:55:48.851Z,59.47
2019-02-06T11:58:19.725Z,59.60
2019-02-06T12:01:07.623Z,59.79
2019-02-06T12:03:38.283Z,58.63
2019-02-06T12:06:09.100Z,59.31
2019-02-06T12:08:39.730Z,59.65
2019-02-06T12:11:10.311Z,59.04
2019-02-06T12:13:41.033Z,59.03
2019-02-06T12:16:11.736Z,60.08
2019-02-06T12:18:42.403Z,58.48
2019-02-06T12:21:13.415Z,58.16
2019-02-06T12:23:44.276Z,58.34
2019-02-06T12:26:14.759Z,58.54
2019-02-06T12:28:45.268Z,58.51
2019-02-06T12:31:15.819Z,57.54
2019-02-06T12:33:46.265Z,57.47
2019-02-06T12:36:16.861Z,57.56
2019-02-06T12:38:53.679Z,57.24
2019-02-06T12:41:19.835Z,56.58
2019-02-06T12:43:50.314Z,56.61
2019-02-06T12:46:21.173Z,56.94
2019-02-06T12:48:51.665Z,56.45
2019-02-06T12:51:22.532Z,55.35
2019-02-06T12:53:53.275Z,55.91
2019-02-06T12:56:24.025Z,54.46
2019-02-06T12:58:54.897Z,54.52
2019-02-06T13:01:25.420Z,54.57
2019-02-06T13:03:55.915Z,54.29
2019-02-06T13:06:26.386Z,54.19
2019-02-06T13:08:56.955Z,54.66
2019-02-06T13:11:27.756Z,54.86
2019-02-06T13:13:58.287Z,53.99
2019-02-06T13:16:29.079Z,53.86
2019-02-06T13:18:59.544Z,53.93
2019-02-06T13:21:30.310Z,52.91
2019-02-06T13:24:01.053Z,53.25
2019-02-06T13:26:31.533Z,52.93
2019-02-06T13:29:02.318Z,51.93
2019-02-06T13:31:32.858Z,51.58
2019-02-06T13:34:03.570Z,51.65
2019-02-06T13:36:34.046Z,52.33
2019-02-06T13:39:07.693Z,51.74
2019-02-06T13:41:38.221Z,51.21
2019-02-06T13:44:08.974Z,51.13
2019-02-06T13:46:39.901Z,52.43
2019-02-06T13:49:10.392Z,51.67
2019-02-06T13:51:41.200Z,50.94
2019-02-06T13:54:11.721Z,51.31
2019-02-06T13:56:42.210Z,51.67
2019-02-06T13:59:12.931Z,51.55
2019-02-06T14:01:43.433Z,50.40
2019-02-06T14:04:14.029Z,51.71
2019-02-06T14:06:44.527Z,51.75
2019-02-06T14:09:22.594Z,50.88
2019-02-06T14:11:49.513Z,51.41
2019-02-06T14:14:20.106Z,50.72
2019-02-06T14:16:50.706Z,50.26
2019-02-06T14:19:21.177Z,51.20
2019-02-06T14:21:51.685Z,50.07
2019-02-06T14:24:52.057Z,50.08
2019-02-06T14:27:43.301Z,50.40
2019-02-06T14:30:57.669Z,50.41
2019-02-06T14:34:23.512Z,50.54
2019-02-06T14:37:56.939Z,51.17
2019-02-06T14:41:27.301Z,51.29
2019-02-06T14:45:21.627Z,51.11
2019-02-06T14:48:14.561Z,51.75
2019-02-06T14:51:45.727Z,51.03
2019-02-06T14:55:09.338Z,50.97
2019-02-06T14:58:56.385Z,50.82
2019-02-06T15:02:41.662Z,51.56
2019-02-06T15:05:57.524Z,52.24
2019-02-06T15:09:01.691Z,51.85
2019-02-06T15:11:51.478Z,51.83
2019-02-06T15:14:56.234Z,52.46
2019-02-06T15:18:08.856Z,51.97
2019-02-06T15:21:20.113Z,52.50
2019-02-06T15:24:51.119Z,52.71
2019-02-06T15:28:05.037Z,52.48
2019-02-06T15:31:41.733Z,53.08
2019-02-06T15:35:20.598Z,52.34
2019-02-06T15:39:14.128Z,52.29
2019-02-06T15:41:57.583Z,52.32
2019-02-06T15:44:56.308Z,52.32
2019-02-06T15:48:10.908Z,52.19
2019-02-06T15:51:56.736Z,52.42
2019-02-06T15:55:25.893Z,51.97
2019-02-06T15:59:03.751Z,51.78
2019-02-06T16:02:28.321Z,52.15
2019-02-06T16:05:46.196Z,53.09
2019-02-06T16:08:33.251Z,52.26
2019-02-06T16:11:42.471Z,52.55
2019-02-06T16:15:02.682Z,53.04
2019-02-06T16:18:17.296Z,53.23
2019-02-06T16:21:52.653Z,55.26
2019-02-06T16:25:08.137Z,53.54
2019-02-06T16:28:39.526Z,53.68
2019-02-06T16:32:10.980Z,54.18
2019-02-06T16:35:37.889Z,54.89
2019-02-06T16:39:20.214Z,56.29
2019-02-06T16:42:55.289Z,57.10
2019-02-06T16:46:13.223Z,58.05
2019-02-06T16:49:44.389Z,58.58
2019-02-06T16:53:12.198Z,60.17
2019-02-06T16:56:43.614Z,60.85
2019-02-06T16:59:57.440Z,62.18
2019-02-06T17:04:01.506Z,62.57
2019-02-06T17:07:11.432Z,63.17
2019-02-06T17:10:47.598Z,63.67
2019-02-06T17:14:19.364Z,64.13
2019-02-06T17:17:39.556Z,65.36
2019-02-06T17:21:11.627Z,66.46
2019-02-06T17:24:25.125Z,66.35
2019-02-06T17:27:58.217Z,67.49
2019-02-06T17:31:05.185Z,67.70
2019-02-06T17:34:29.298Z,68.45
2019-02-06T17:38:01.194Z,68.44
2019-02-06T17:41:35.611Z,68.80
2019-02-06T17:45:15.671Z,69.15
2019-02-06T17:48:30.145Z,69.49
2019-02-06T17:52:11.453Z,70.03
2019-02-06T17:55:25.585Z,70.59
2019-02-06T17:57:59.641Z,70.81
2019-02-06T18:00:51.491Z,70.94
2019-02-06T18:03:22.359Z,71.87
2019-02-06T18:05:53.309Z,72.57
2019-02-06T18:08:23.798Z,72.39
2019-02-06T18:10:54.548Z,72.83
2019-02-06T18:13:25.156Z,73.42
2019-02-06T18:15:55.652Z,74.35
2019-02-06T18:18:26.778Z,74.37
2019-02-06T18:20:57.366Z,74.95
2019-02-06T18:23:28.128Z,75.62
2019-02-06T18:25:58.644Z,75.30
2019-02-06T18:28:29.365Z,76.01
2019-02-06T18:30:59.903Z,76.09
2019-02-06T18:33:30.729Z,75.73
2019-02-06T18:36:01.203Z,75.80
2019-02-06T18:38:32.286Z,75.26
2019-02-06T18:41:02.919Z,74.67
2019-02-06T18:43:33.433Z,74.10
2019-02-06T18:46:03.955Z,73.60
2019-02-06T18:48:35.448Z,74.06
2019-02-06T18:51:06.697Z,74.26
2019-02-06T18:53:37.267Z,73.41
2019-02-06T18:56:07.989Z,74.14
2019-02-06T18:58:38.481Z,74.68
2019-02-06T19:01:09.393Z,71.46
2019-02-06T19:03:44.177Z,71.69
2019-02-06T19:06:15.030Z,71.86
2019-02-06T19:08:45.619Z,71.72
2019-02-06T19:11:16.226Z,72.04
2019-02-06T19:13:46.848Z,71.88
2019-02-06T19:16:17.798Z,72.37
2019-02-06T19:18:48.293Z,72.21
2019-02-06T19:21:19.601Z,72.46
2019-02-06T19:23:50.144Z,73.98
2019-02-06T19:26:20.639Z,73.83
2019-02-06T19:28:51.256Z,73.28
2019-02-06T19:31:21.725Z,73.79
2019-02-06T19:33:52.193Z,74.22
2019-02-06T19:36:23.357Z,73.88
2019-02-06T19:38:54.394Z,75.98
2019-02-06T19:41:24.871Z,75.19
2019-02-06T19:43:55.428Z,75.54
2019-02-06T19:46:26.548Z,75.73
2019-02-06T19:48:57.328Z,76.80
2019-02-06T19:51:28.109Z,76.55
2019-02-06T19:53:58.566Z,77.39
2019-02-06T19:56:29.050Z,77.03
2019-02-06T19:58:59.813Z,77.27
2019-02-06T20:01:30.299Z,77.52
2019-02-06T20:04:01.292Z,78.84
2019-02-06T20:06:32.890Z,81.03
2019-02-06T20:09:13.926Z,82.21
2019-02-06T20:11:44.714Z,83.80
2019-02-06T20:14:15.207Z,84.00
2019-02-06T20:16:46.596Z,85.66
2019-02-06T20:19:17.102Z,85.25
2019-02-06T20:21:47.577Z,86.17
2019-02-06T20:24:18.398Z,88.90
2019-02-06T20:26:48.952Z,86.83
2019-02-06T20:29:19.456Z,87.09
2019-02-06T20:31:49.939Z,86.71
2019-02-06T20:34:20.658Z,86.23
2019-02-06T20:36:52.849Z,86.53
2019-02-06T20:39:23.765Z,87.04
2019-02-06T20:41:55.933Z,86.28
2019-02-06T20:44:26.827Z,86.07
2019-02-06T20:46:58.075Z,85.77
2019-02-06T20:49:29.063Z,85.81
2019-02-06T20:52:00.068Z,85.68
2019-02-06T20:54:30.700Z,87.41
2019-02-06T20:57:11.827Z,87.13
2019-02-06T20:59:33.976Z,88.18
2019-02-06T21:02:04.678Z,88.21
2019-02-06T21:04:46.942Z,88.53
2019-02-06T21:07:17.217Z,88.30
2019-02-06T21:09:50.898Z,88.88
2019-02-06T21:12:22.137Z,87.65
2019-02-06T21:14:55.591Z,87.19
2019-02-06T21:17:27.052Z,88.06
2019-02-06T21:19:57.753Z,87.35
2019-02-06T21:22:34.407Z,87.40
2019-02-06T21:25:09.540Z,87.85
2019-02-06T21:27:41.940Z,88.22
2019-02-06T21:30:25.759Z,88.75
2019-02-06T21:32:57.006Z,89.06
2019-02-06T21:35:28.499Z,89.52
2019-02-06T21:37:59.812Z,90.92
2019-02-06T21:40:33.153Z,90.80
2019-02-06T21:43:04.079Z,91.56
2019-02-06T21:45:34.966Z,90.89
2019-02-06T21:48:08.678Z,90.13
2019-02-06T21:50:40.188Z,90.19
2019-02-06T21:53:10.820Z,90.69
2019-02-06T21:55:42.205Z,90.94
2019-02-06T21:58:14.975Z,90.81
2019-02-06T22:00:45.953Z,90.24
2019-02-06T22:03:17.242Z,90.67
2019-02-06T22:05:47.898Z,90.67
2019-02-06T22:08:18.453Z,90.52
2019-02-06T22:10:49.589Z,90.88
2019-02-06T22:13:20.351Z,91.21
2019-02-06T22:15:51.207Z,90.72
2019-02-06T22:18:22.243Z,91.27
2019-02-06T22:20:53.565Z,91.11
2019-02-06T22:23:24.217Z,90.78
2019-02-06T22:25:55.010Z,91.32
2019-02-06T22:28:28.449Z,91.28
2019-02-06T22:30:59.584Z,91.83
2019-02-06T22:33:30.404Z,92.22
2019-02-06T22:36:00.904Z,92.75
2019-02-06T22:38:31.433Z,92.82
2019-02-06T22:41:02.276Z,92.76
2019-02-06T22:43:32.872Z,92.76
2019-02-06T22:46:03.675Z,92.68
2019-02-06T22:48:34.148Z,92.93
2019-02-06T22:51:05.052Z,93.51
2019-02-06T22:53:35.605Z,94.02
2019-02-06T22:56:06.474Z,93.50
2019-02-06T22:58:37.157Z,94.05
2019-02-06T23:01:51.302Z,94.42
2019-02-06T23:04:21.793Z,93.63
2019-02-06T23:06:53.583Z,93.08
2019-02-06T23:09:24.413Z,93.58
2019-02-06T23:11:55.182Z,93.18
2019-02-06T23:14:26.317Z,92.79
2019-02-06T23:16:56.930Z,92.52
2019-02-06T23:19:27.488Z,93.51
2019-02-06T23:21:57.958Z,93.29
2019-02-06T23:24:28.800Z,94.49
2019-02-06T23:26:59.602Z,94.04
2019-02-06T23:29:30.096Z,94.58
2019-02-06T23:32:00.594Z,95.26
2019-02-06T23:34:31.088Z,94.70
2019-02-06T23:37:01.819Z,94.21
2019-02-06T23:39:32.314Z,93.91
2019-02-06T23:42:03.044Z,94.00
2019-02-06T23:44:33.827Z,93.98
2019-02-06T23:47:04.322Z,93.66
2019-02-06T23:49:35.027Z,93.91
2019-02-06T23:52:05.770Z,94.07
2019-02-06T23:54:36.579Z,93.51
2019-02-06T23:57:07.453Z,93.73
2019-02-06T23:59:44.075Z,93.30
